sensor_id;sensor_type;location;lat;lon;timestamp;P1;durP1;ratioP1;P2;durP2;ratioP2
27313;SDS011;14800;48.174;9.798;2024-01-15T00:02:17;23.45;;;11.68;;
27313;SDS011;14800;48.174;9.798;2024-01-15T00:04:42;21.95;;;11.23;;
27313;SDS011;14800;48.174;9.798;2024-01-15T00:07:08;24.58;;;11.50;;
27313;SDS011;14800;48.174;9.798;2024-01-15T00:09:34;24.70;;;11.73;;
27313;SDS011;14800;48.174;9.798;2024-01-15T00:12:00;26.98;;;12.35;;
27313;SDS011;14800;48.174;9.798;2024-01-15T00:14:26;22.42;;;11.35;;
27313;SDS011;14800;48.174;9.798;2024-01-15T00:16:52;22.38;;;10.93;;
27313;SDS011;14800;48.174;9.798;2024-01-15T00:19:20;27.52;;;12.10;;
27313;SDS011;14800;48.174;9.798;2024-01-15T00:21:46;23.65;;;11.43;;
27313;SDS011;14800;48.174;9.798;2024-01-15T00:24:12;22.80;;;11.45;;
27313;SDS011;14800;48.174;9.798;2024-01-15T00:26:37;24.33;;;12.30;;
27313;SDS011;14800;48.174;9.798;2024-01-15T00:29:03;30.73;;;12.30;;
27313;SDS011;14800;48.174;9.798;2024-01-15T00:31:29;23.00;;;11.00;;
27313;SDS011;14800;48.174;9.798;2024-01-15T00:33:55;22.73;;;11.25;;
27313;SDS011;14800;48.174;9.798;2024-01-15T00:36:22;25.23;;;11.68;;
27313;SDS011;14800;48.174;9.798;2024-01-15T00:38:48;22.08;;;10.88;;
27313;SDS011;14800;48.174;9.798;2024-01-15T00:41:13;20.98;;;10.90;;
27313;SDS011;14800;48.174;9.798;2024-01-15T00:43:39;25.65;;;12.25;;
27313;SDS011;14800;48.174;9.798;2024-01-15T00:46:05;25.05;;;12.40;;
27313;SDS011;14800;48.174;9.798;2024-01-15T00:48:31;25.08;;;12.20;;
27313;SDS011;14800;48.174;9.798;2024-01-15T00:50:56;25.92;;;12.02;;
27313;SDS011;14800;48.174;9.798;2024-01-15T00:53:22;24.83;;;11.88;;
27313;SDS011;14800;48.174;9.798;2024-01-15T00:55:48;23.73;;;11.57;;
27313;SDS011;14800;48.174;9.798;2024-01-15T00:58:14;24.52;;;11.57;;
27313;SDS011;14800;48.174;9.798;2024-01-15T01:00:39;23.60;;;11.55;;
27313;SDS011;14800;48.174;9.798;2024-01-15T01:03:05;21.50;;;10.95;;
27313;SDS011;14800;48.174;9.798;2024-01-15T01:05:31;23.58;;;11.23;;
27313;SDS011;14800;48.174;9.798;2024-01-15T01:07:56;21.08;;;11.10;;
27313;SDS011;14800;48.174;9.798;2024-01-15T01:10:22;23.30;;;11.23;;
27313;SDS011;14800;48.174;9.798;2024-01-15T01:12:48;22.00;;;11.02;;
27313;SDS011;14800;48.174;9.798;2024-01-15T01:15:13;26.05;;;12.13;;
27313;SDS011;14800;48.174;9.798;2024-01-15T01:17:39;25.85;;;12.13;;
27313;SDS011;14800;48.174;9.798;2024-01-15T01:20:04;23.85;;;12.30;;
27313;SDS011;14800;48.174;9.798;2024-01-15T01:22:33;24.73;;;11.43;;
27313;SDS011;14800;48.174;9.798;2024-01-15T01:24:59;25.67;;;12.65;;
27313;SDS011;14800;48.174;9.798;2024-01-15T01:27:24;27.55;;;12.32;;
27313;SDS011;14800;48.174;9.798;2024-01-15T01:29:50;26.80;;;12.25;;
27313;SDS011;14800;48.174;9.798;2024-01-15T01:32:15;22.58;;;11.63;;
27313;SDS011;14800;48.174;9.798;2024-01-15T01:34:41;25.13;;;11.60;;
27313;SDS011;14800;48.174;9.798;2024-01-15T01:37:10;25.27;;;11.95;;
27313;SDS011;14800;48.174;9.798;2024-01-15T01:39:39;21.83;;;10.45;;
27313;SDS011;14800;48.174;9.798;2024-01-15T01:42:05;24.05;;;11.23;;
27313;SDS011;14800;48.174;9.798;2024-01-15T01:44:31;20.02;;;10.30;;
27313;SDS011;14800;48.174;9.798;2024-01-15T01:46:59;19.98;;;10.82;;
27313;SDS011;14800;48.174;9.798;2024-01-15T01:49:26;24.25;;;11.52;;
27313;SDS011;14800;48.174;9.798;2024-01-15T01:51:53;22.48;;;10.95;;
27313;SDS011;14800;48.174;9.798;2024-01-15T01:54:21;24.45;;;11.43;;
27313;SDS011;14800;48.174;9.798;2024-01-15T01:56:47;21.25;;;10.30;;
27313;SDS011;14800;48.174;9.798;2024-01-15T01:59:14;18.67;;;9.90;;
27313;SDS011;14800;48.174;9.798;2024-01-15T02:01:39;21.15;;;10.40;;
27313;SDS011;14800;48.174;9.798;2024-01-15T02:04:06;21.58;;;10.35;;
27313;SDS011;14800;48.174;9.798;2024-01-15T02:06:31;21.15;;;9.98;;
27313;SDS011;14800;48.174;9.798;2024-01-15T02:08:58;23.48;;;10.27;;
27313;SDS011;14800;48.174;9.798;2024-01-15T02:11:24;23.52;;;10.55;;
27313;SDS011;14800;48.174;9.798;2024-01-15T02:13:49;22.90;;;10.40;;
27313;SDS011;14800;48.174;9.798;2024-01-15T02:16:15;21.80;;;10.10;;
27313;SDS011;14800;48.174;9.798;2024-01-15T02:18:44;23.73;;;10.35;;
27313;SDS011;14800;48.174;9.798;2024-01-15T02:21:11;21.02;;;10.20;;
27313;SDS011;14800;48.174;9.798;2024-01-15T02:23:37;23.27;;;10.18;;
27313;SDS011;14800;48.174;9.798;2024-01-15T02:26:04;25.30;;;10.63;;
27313;SDS011;14800;48.174;9.798;2024-01-15T02:28:30;22.55;;;10.30;;
27313;SDS011;14800;48.174;9.798;2024-01-15T02:30:57;24.85;;;10.90;;
27313;SDS011;14800;48.174;9.798;2024-01-15T02:33:23;21.42;;;10.48;;
27313;SDS011;14800;48.174;9.798;2024-01-15T02:35:48;21.90;;;9.82;;
27313;SDS011;14800;48.174;9.798;2024-01-15T02:38:15;19.95;;;9.60;;
27313;SDS011;14800;48.174;9.798;2024-01-15T02:40:41;20.77;;;9.52;;
27313;SDS011;14800;48.174;9.798;2024-01-15T02:43:08;21.88;;;10.15;;
27313;SDS011;14800;48.174;9.798;2024-01-15T02:45:34;20.02;;;9.13;;
27313;SDS011;14800;48.174;9.798;2024-01-15T02:47:59;22.13;;;9.98;;
27313;SDS011;14800;48.174;9.798;2024-01-15T02:50:25;20.98;;;9.63;;
27313;SDS011;14800;48.174;9.798;2024-01-15T02:52:51;20.10;;;9.73;;
27313;SDS011;14800;48.174;9.798;2024-01-15T02:55:16;19.92;;;9.57;;
27313;SDS011;14800;48.174;9.798;2024-01-15T02:57:42;20.60;;;9.20;;
27313;SDS011;14800;48.174;9.798;2024-01-15T03:00:08;18.67;;;9.02;;
27313;SDS011;14800;48.174;9.798;2024-01-15T03:02:36;20.50;;;9.32;;
27313;SDS011;14800;48.174;9.798;2024-01-15T03:05:04;21.40;;;9.20;;
27313;SDS011;14800;48.174;9.798;2024-01-15T03:07:31;20.50;;;8.85;;
27313;SDS011;14800;48.174;9.798;2024-01-15T03:09:57;19.90;;;8.98;;
27313;SDS011;14800;48.174;9.798;2024-01-15T03:12:22;17.70;;;8.52;;
27313;SDS011;14800;48.174;9.798;2024-01-15T03:14:48;18.92;;;9.13;;
27313;SDS011;14800;48.174;9.798;2024-01-15T03:17:13;18.10;;;8.93;;
27313;SDS011;14800;48.174;9.798;2024-01-15T03:19:39;17.73;;;8.27;;
27313;SDS011;14800;48.174;9.798;2024-01-15T03:22:04;18.90;;;9.00;;
27313;SDS011;14800;48.174;9.798;2024-01-15T03:24:33;19.98;;;8.85;;
27313;SDS011;14800;48.174;9.798;2024-01-15T03:26:58;17.20;;;8.43;;
27313;SDS011;14800;48.174;9.798;2024-01-15T03:29:25;19.00;;;8.82;;
27313;SDS011;14800;48.174;9.798;2024-01-15T03:31:51;17.15;;;8.45;;
27313;SDS011;14800;48.174;9.798;2024-01-15T03:34:17;17.48;;;8.50;;
27313;SDS011;14800;48.174;9.798;2024-01-15T03:36:42;17.63;;;8.43;;
27313;SDS011;14800;48.174;9.798;2024-01-15T03:39:08;18.45;;;8.43;;
27313;SDS011;14800;48.174;9.798;2024-01-15T03:41:34;17.00;;;8.25;;
27313;SDS011;14800;48.174;9.798;2024-01-15T03:43:59;18.35;;;8.55;;
27313;SDS011;14800;48.174;9.798;2024-01-15T03:46:25;16.75;;;8.63;;
27313;SDS011;14800;48.174;9.798;2024-01-15T03:48:50;18.52;;;8.93;;
27313;SDS011;14800;48.174;9.798;2024-01-15T03:51:17;19.88;;;8.85;;
27313;SDS011;14800;48.174;9.798;2024-01-15T03:53:43;18.45;;;8.88;;
27313;SDS011;14800;48.174;9.798;2024-01-15T03:56:08;18.73;;;8.73;;
27313;SDS011;14800;48.174;9.798;2024-01-15T03:58:34;17.75;;;8.32;;
27313;SDS011;14800;48.174;9.798;2024-01-15T04:01:00;17.67;;;8.38;;
27313;SDS011;14800;48.174;9.798;2024-01-15T04:03:25;16.63;;;8.13;;
27313;SDS011;14800;48.174;9.798;2024-01-15T04:05:51;17.83;;;7.53;;
27313;SDS011;14800;48.174;9.798;2024-01-15T04:08:16;15.73;;;7.50;;
27313;SDS011;14800;48.174;9.798;2024-01-15T04:10:42;15.75;;;7.47;;
27313;SDS011;14800;48.174;9.798;2024-01-15T04:13:07;13.38;;;7.10;;
27313;SDS011;14800;48.174;9.798;2024-01-15T04:15:33;13.68;;;7.05;;
27313;SDS011;14800;48.174;9.798;2024-01-15T04:17:58;15.32;;;7.43;;
27313;SDS011;14800;48.174;9.798;2024-01-15T04:20:26;14.35;;;6.95;;
27313;SDS011;14800;48.174;9.798;2024-01-15T04:22:51;16.25;;;7.70;;
27313;SDS011;14800;48.174;9.798;2024-01-15T04:25:17;15.07;;;7.22;;
27313;SDS011;14800;48.174;9.798;2024-01-15T04:27:42;13.63;;;6.57;;
27313;SDS011;14800;48.174;9.798;2024-01-15T04:30:08;12.68;;;6.72;;
27313;SDS011;14800;48.174;9.798;2024-01-15T04:32:34;16.83;;;7.38;;
27313;SDS011;14800;48.174;9.798;2024-01-15T04:35:00;12.95;;;6.60;;
27313;SDS011;14800;48.174;9.798;2024-01-15T04:37:25;14.27;;;7.10;;
27313;SDS011;14800;48.174;9.798;2024-01-15T04:39:51;14.10;;;7.28;;
27313;SDS011;14800;48.174;9.798;2024-01-15T04:42:19;13.60;;;6.85;;
27313;SDS011;14800;48.174;9.798;2024-01-15T04:44:48;13.02;;;6.97;;
27313;SDS011;14800;48.174;9.798;2024-01-15T04:47:14;16.17;;;6.53;;
27313;SDS011;14800;48.174;9.798;2024-01-15T04:49:39;16.35;;;7.68;;
27313;SDS011;14800;48.174;9.798;2024-01-15T04:52:05;13.40;;;7.03;;
27313;SDS011;14800;48.174;9.798;2024-01-15T04:54:30;12.57;;;6.85;;
27313;SDS011;14800;48.174;9.798;2024-01-15T04:56:56;16.52;;;7.60;;
27313;SDS011;14800;48.174;9.798;2024-01-15T04:59:21;13.80;;;7.03;;
27313;SDS011;14800;48.174;9.798;2024-01-15T05:01:47;16.35;;;7.13;;
27313;SDS011;14800;48.174;9.798;2024-01-15T05:04:13;11.75;;;6.55;;
27313;SDS011;14800;48.174;9.798;2024-01-15T05:06:39;13.60;;;7.03;;
27313;SDS011;14800;48.174;9.798;2024-01-15T05:09:05;12.65;;;6.50;;
27313;SDS011;14800;48.174;9.798;2024-01-15T05:11:30;12.43;;;6.60;;
27313;SDS011;14800;48.174;9.798;2024-01-15T05:13:56;13.20;;;7.15;;
27313;SDS011;14800;48.174;9.798;2024-01-15T05:16:22;12.52;;;6.85;;
27313;SDS011;14800;48.174;9.798;2024-01-15T05:18:47;11.32;;;6.13;;
27313;SDS011;14800;48.174;9.798;2024-01-15T05:21:13;11.82;;;5.90;;
27313;SDS011;14800;48.174;9.798;2024-01-15T05:23:38;10.85;;;5.65;;
27313;SDS011;14800;48.174;9.798;2024-01-15T05:26:04;13.30;;;6.18;;
27313;SDS011;14800;48.174;9.798;2024-01-15T05:28:29;9.48;;;5.47;;
27313;SDS011;14800;48.174;9.798;2024-01-15T05:30:55;10.93;;;5.95;;
27313;SDS011;14800;48.174;9.798;2024-01-15T05:33:24;9.25;;;5.13;;
27313;SDS011;14800;48.174;9.798;2024-01-15T05:35:49;10.88;;;5.55;;
27313;SDS011;14800;48.174;9.798;2024-01-15T05:38:15;12.43;;;6.55;;
27313;SDS011;14800;48.174;9.798;2024-01-15T05:40:42;10.90;;;5.97;;
27313;SDS011;14800;48.174;9.798;2024-01-15T05:43:07;9.52;;;5.15;;
27313;SDS011;14800;48.174;9.798;2024-01-15T05:45:34;11.65;;;5.80;;
27313;SDS011;14800;48.174;9.798;2024-01-15T05:48:03;9.25;;;5.90;;
27313;SDS011;14800;48.174;9.798;2024-01-15T05:50:28;11.77;;;6.13;;
27313;SDS011;14800;48.174;9.798;2024-01-15T05:52:54;14.27;;;7.00;;
27313;SDS011;14800;48.174;9.798;2024-01-15T05:55:20;16.50;;;7.78;;
27313;SDS011;14800;48.174;9.798;2024-01-15T05:57:45;18.15;;;8.80;;
27313;SDS011;14800;48.174;9.798;2024-01-15T06:00:11;15.60;;;8.40;;
27313;SDS011;14800;48.174;9.798;2024-01-15T06:02:37;16.75;;;8.43;;
27313;SDS011;14800;48.174;9.798;2024-01-15T06:05:04;16.10;;;8.23;;
27313;SDS011;14800;48.174;9.798;2024-01-15T06:07:31;15.90;;;7.43;;
27313;SDS011;14800;48.174;9.798;2024-01-15T06:09:57;14.70;;;7.60;;
27313;SDS011;14800;48.174;9.798;2024-01-15T06:12:22;17.25;;;7.97;;
27313;SDS011;14800;48.174;9.798;2024-01-15T06:14:48;16.38;;;8.07;;
27313;SDS011;14800;48.174;9.798;2024-01-15T06:17:14;13.77;;;7.32;;
27313;SDS011;14800;48.174;9.798;2024-01-15T06:19:39;16.55;;;7.70;;
27313;SDS011;14800;48.174;9.798;2024-01-15T06:22:05;13.38;;;7.30;;
27313;SDS011;14800;48.174;9.798;2024-01-15T06:24:30;15.60;;;7.20;;
27313;SDS011;14800;48.174;9.798;2024-01-15T06:26:56;13.63;;;7.15;;
27313;SDS011;14800;48.174;9.798;2024-01-15T06:29:22;12.68;;;6.90;;
27313;SDS011;14800;48.174;9.798;2024-01-15T06:31:50;13.38;;;6.80;;
27313;SDS011;14800;48.174;9.798;2024-01-15T06:34:15;15.07;;;7.35;;
27313;SDS011;14800;48.174;9.798;2024-01-15T06:36:41;13.50;;;6.82;;
27313;SDS011;14800;48.174;9.798;2024-01-15T06:39:07;16.05;;;7.20;;
27313;SDS011;14800;48.174;9.798;2024-01-15T06:41:32;12.75;;;6.60;;
27313;SDS011;14800;48.174;9.798;2024-01-15T06:43:58;14.00;;;7.03;;
27313;SDS011;14800;48.174;9.798;2024-01-15T06:46:24;13.25;;;6.40;;
27313;SDS011;14800;48.174;9.798;2024-01-15T06:48:49;14.57;;;6.82;;
27313;SDS011;14800;48.174;9.798;2024-01-15T06:51:15;13.60;;;6.35;;
27313;SDS011;14800;48.174;9.798;2024-01-15T06:53:41;10.95;;;6.03;;
27313;SDS011;14800;48.174;9.798;2024-01-15T06:56:07;13.77;;;6.47;;
27313;SDS011;14800;48.174;9.798;2024-01-15T06:58:33;12.02;;;6.40;;
27313;SDS011;14800;48.174;9.798;2024-01-15T07:00:59;12.55;;;6.55;;
27313;SDS011;14800;48.174;9.798;2024-01-15T07:03:25;11.88;;;6.20;;
27313;SDS011;14800;48.174;9.798;2024-01-15T07:05:51;11.63;;;6.05;;
27313;SDS011;14800;48.174;9.798;2024-01-15T07:08:17;14.88;;;6.53;;
27313;SDS011;14800;48.174;9.798;2024-01-15T07:10:42;10.25;;;6.28;;
27313;SDS011;14800;48.174;9.798;2024-01-15T07:13:08;12.13;;;6.13;;
27313;SDS011;14800;48.174;9.798;2024-01-15T07:15:34;12.65;;;6.43;;
27313;SDS011;14800;48.174;9.798;2024-01-15T07:17:59;14.18;;;6.47;;
27313;SDS011;14800;48.174;9.798;2024-01-15T07:20:25;11.35;;;6.22;;
27313;SDS011;14800;48.174;9.798;2024-01-15T07:22:51;11.45;;;6.38;;
27313;SDS011;14800;48.174;9.798;2024-01-15T07:25:16;12.10;;;6.15;;
27313;SDS011;14800;48.174;9.798;2024-01-15T07:27:42;13.07;;;6.55;;
27313;SDS011;14800;48.174;9.798;2024-01-15T07:30:10;10.07;;;5.65;;
27313;SDS011;14800;48.174;9.798;2024-01-15T07:32:36;10.98;;;5.65;;
27313;SDS011;14800;48.174;9.798;2024-01-15T07:35:02;10.18;;;5.95;;
27313;SDS011;14800;48.174;9.798;2024-01-15T07:37:28;10.77;;;5.90;;
27313;SDS011;14800;48.174;9.798;2024-01-15T07:39:53;9.25;;;5.28;;
27313;SDS011;14800;48.174;9.798;2024-01-15T07:42:19;10.07;;;5.32;;
27313;SDS011;14800;48.174;9.798;2024-01-15T07:44:45;10.38;;;5.22;;
27313;SDS011;14800;48.174;9.798;2024-01-15T07:47:10;9.82;;;5.13;;
27313;SDS011;14800;48.174;9.798;2024-01-15T07:49:36;11.95;;;5.03;;
27313;SDS011;14800;48.174;9.798;2024-01-15T07:52:01;9.20;;;4.95;;
27313;SDS011;14800;48.174;9.798;2024-01-15T07:54:27;9.38;;;4.68;;
27313;SDS011;14800;48.174;9.798;2024-01-15T07:56:56;9.55;;;4.72;;
27313;SDS011;14800;48.174;9.798;2024-01-15T07:59:23;14.38;;;7.05;;
27313;SDS011;14800;48.174;9.798;2024-01-15T08:01:49;10.10;;;5.20;;
27313;SDS011;14800;48.174;9.798;2024-01-15T08:04:15;9.48;;;4.85;;
27313;SDS011;14800;48.174;9.798;2024-01-15T08:06:40;10.02;;;5.28;;
27313;SDS011;14800;48.174;9.798;2024-01-15T08:09:06;7.93;;;4.28;;
27313;SDS011;14800;48.174;9.798;2024-01-15T08:11:33;8.45;;;4.50;;
27313;SDS011;14800;48.174;9.798;2024-01-15T08:13:59;8.63;;;4.50;;
27313;SDS011;14800;48.174;9.798;2024-01-15T08:16:25;7.78;;;4.45;;
27313;SDS011;14800;48.174;9.798;2024-01-15T08:18:50;9.43;;;4.25;;
27313;SDS011;14800;48.174;9.798;2024-01-15T08:21:16;7.45;;;4.32;;
27313;SDS011;14800;48.174;9.798;2024-01-15T08:23:41;7.68;;;4.47;;
27313;SDS011;14800;48.174;9.798;2024-01-15T08:26:07;8.23;;;4.40;;
27313;SDS011;14800;48.174;9.798;2024-01-15T08:28:34;6.97;;;3.83;;
27313;SDS011;14800;48.174;9.798;2024-01-15T08:30:59;7.20;;;3.58;;
27313;SDS011;14800;48.174;9.798;2024-01-15T08:33:25;6.78;;;3.90;;
27313;SDS011;14800;48.174;9.798;2024-01-15T08:35:50;8.00;;;4.20;;
27313;SDS011;14800;48.174;9.798;2024-01-15T08:38:16;6.25;;;3.83;;
27313;SDS011;14800;48.174;9.798;2024-01-15T08:40:41;6.53;;;3.60;;
27313;SDS011;14800;48.174;9.798;2024-01-15T08:43:07;6.53;;;3.45;;
27313;SDS011;14800;48.174;9.798;2024-01-15T08:45:32;5.57;;;3.58;;
27313;SDS011;14800;48.174;9.798;2024-01-15T08:47:58;6.95;;;3.20;;
27313;SDS011;14800;48.174;9.798;2024-01-15T08:50:24;6.22;;;3.10;;
27313;SDS011;14800;48.174;9.798;2024-01-15T08:52:49;6.00;;;2.95;;
27313;SDS011;14800;48.174;9.798;2024-01-15T08:55:15;6.15;;;3.17;;
27313;SDS011;14800;48.174;9.798;2024-01-15T08:57:41;5.63;;;2.70;;
27313;SDS011;14800;48.174;9.798;2024-01-15T09:00:06;5.00;;;2.50;;
27313;SDS011;14800;48.174;9.798;2024-01-15T09:02:35;4.20;;;2.63;;
27313;SDS011;14800;48.174;9.798;2024-01-15T09:05:01;3.13;;;2.22;;
27313;SDS011;14800;48.174;9.798;2024-01-15T09:07:27;4.00;;;2.50;;
27313;SDS011;14800;48.174;9.798;2024-01-15T09:09:52;3.78;;;2.35;;
27313;SDS011;14800;48.174;9.798;2024-01-15T09:12:18;4.70;;;2.55;;
27313;SDS011;14800;48.174;9.798;2024-01-15T09:14:46;4.65;;;2.67;;
27313;SDS011;14800;48.174;9.798;2024-01-15T09:17:11;4.70;;;2.20;;
27313;SDS011;14800;48.174;9.798;2024-01-15T09:19:37;3.47;;;2.40;;
27313;SDS011;14800;48.174;9.798;2024-01-15T09:22:04;3.40;;;2.08;;
27313;SDS011;14800;48.174;9.798;2024-01-15T09:24:30;2.63;;;2.25;;
27313;SDS011;14800;48.174;9.798;2024-01-15T09:26:56;4.93;;;2.00;;
27313;SDS011;14800;48.174;9.798;2024-01-15T09:29:21;2.30;;;1.83;;
27313;SDS011;14800;48.174;9.798;2024-01-15T09:31:48;5.95;;;1.95;;
27313;SDS011;14800;48.174;9.798;2024-01-15T09:34:15;3.75;;;1.90;;
27313;SDS011;14800;48.174;9.798;2024-01-15T09:36:41;3.08;;;1.98;;
27313;SDS011;14800;48.174;9.798;2024-01-15T09:39:07;2.85;;;1.80;;
27313;SDS011;14800;48.174;9.798;2024-01-15T09:41:37;2.50;;;1.85;;
27313;SDS011;14800;48.174;9.798;2024-01-15T09:44:03;3.47;;;1.95;;
27313;SDS011;14800;48.174;9.798;2024-01-15T09:46:30;3.10;;;1.73;;
27313;SDS011;14800;48.174;9.798;2024-01-15T09:48:57;2.65;;;1.80;;
27313;SDS011;14800;48.174;9.798;2024-01-15T09:51:23;2.10;;;1.50;;
27313;SDS011;14800;48.174;9.798;2024-01-15T09:53:49;2.92;;;1.52;;
27313;SDS011;14800;48.174;9.798;2024-01-15T09:56:15;2.95;;;1.70;;
27313;SDS011;14800;48.174;9.798;2024-01-15T09:58:41;1.80;;;1.63;;
27313;SDS011;14800;48.174;9.798;2024-01-15T10:01:07;2.20;;;1.50;;
27313;SDS011;14800;48.174;9.798;2024-01-15T10:03:34;2.53;;;1.38;;
27313;SDS011;14800;48.174;9.798;2024-01-15T10:05:59;1.52;;;1.42;;
27313;SDS011;14800;48.174;9.798;2024-01-15T10:08:29;2.92;;;1.40;;
27313;SDS011;14800;48.174;9.798;2024-01-15T10:10:54;1.85;;;1.42;;
27313;SDS011;14800;48.174;9.798;2024-01-15T10:13:20;2.03;;;1.30;;
27313;SDS011;14800;48.174;9.798;2024-01-15T10:15:47;3.20;;;1.60;;
27313;SDS011;14800;48.174;9.798;2024-01-15T10:18:12;2.55;;;1.50;;
27313;SDS011;14800;48.174;9.798;2024-01-15T10:20:39;1.70;;;1.40;;
27313;SDS011;14800;48.174;9.798;2024-01-15T10:23:05;1.30;;;0.98;;
27313;SDS011;14800;48.174;9.798;2024-01-15T10:25:30;2.75;;;1.48;;
27313;SDS011;14800;48.174;9.798;2024-01-15T10:28:02;3.03;;;1.50;;
27313;SDS011;14800;48.174;9.798;2024-01-15T10:30:29;1.90;;;1.50;;
27313;SDS011;14800;48.174;9.798;2024-01-15T10:32:59;2.35;;;1.42;;
27313;SDS011;14800;48.174;9.798;2024-01-15T10:35:29;3.05;;;1.52;;
27313;SDS011;14800;48.174;9.798;2024-01-15T10:37:56;3.10;;;1.70;;
27313;SDS011;14800;48.174;9.798;2024-01-15T10:40:21;2.58;;;1.80;;
27313;SDS011;14800;48.174;9.798;2024-01-15T10:42:47;2.85;;;1.90;;
27313;SDS011;14800;48.174;9.798;2024-01-15T10:45:16;2.70;;;2.00;;
27313;SDS011;14800;48.174;9.798;2024-01-15T10:47:42;4.63;;;2.50;;
27313;SDS011;14800;48.174;9.798;2024-01-15T10:50:08;4.60;;;2.50;;
27313;SDS011;14800;48.174;9.798;2024-01-15T10:52:37;5.43;;;2.40;;
27313;SDS011;14800;48.174;9.798;2024-01-15T10:55:08;3.28;;;2.58;;
27313;SDS011;14800;48.174;9.798;2024-01-15T10:57:35;5.35;;;2.65;;
27313;SDS011;14800;48.174;9.798;2024-01-15T11:00:05;3.70;;;2.65;;
27313;SDS011;14800;48.174;9.798;2024-01-15T11:02:32;6.57;;;2.70;;
27313;SDS011;14800;48.174;9.798;2024-01-15T11:04:59;4.57;;;2.63;;
27313;SDS011;14800;48.174;9.798;2024-01-15T11:07:25;3.78;;;2.60;;
27313;SDS011;14800;48.174;9.798;2024-01-15T11:09:51;6.07;;;2.67;;
27313;SDS011;14800;48.174;9.798;2024-01-15T11:12:17;4.80;;;2.90;;
27313;SDS011;14800;48.174;9.798;2024-01-15T11:14:48;5.65;;;3.10;;
27313;SDS011;14800;48.174;9.798;2024-01-15T11:17:17;4.72;;;2.95;;
27313;SDS011;14800;48.174;9.798;2024-01-15T11:19:50;4.15;;;2.70;;
27313;SDS011;14800;48.174;9.798;2024-01-15T11:24:57;4.65;;;2.75;;
27313;SDS011;14800;48.174;9.798;2024-01-15T11:27:40;4.43;;;2.60;;
27313;SDS011;14800;48.174;9.798;2024-01-15T11:30:16;5.30;;;2.58;;
27313;SDS011;14800;48.174;9.798;2024-01-15T11:32:42;4.30;;;2.80;;
27313;SDS011;14800;48.174;9.798;2024-01-15T11:35:09;5.18;;;3.33;;
27313;SDS011;14800;48.174;9.798;2024-01-15T11:40:19;5.82;;;3.63;;
27313;SDS011;14800;48.174;9.798;2024-01-15T11:42:46;7.30;;;3.60;;
27313;SDS011;14800;48.174;9.798;2024-01-15T11:45:13;8.32;;;4.07;;
27313;SDS011;14800;48.174;9.798;2024-01-15T11:50:29;6.28;;;3.97;;
27313;SDS011;14800;48.174;9.798;2024-01-15T11:52:58;7.55;;;3.95;;
27313;SDS011;14800;48.174;9.798;2024-01-15T11:55:27;8.60;;;4.00;;
27313;SDS011;14800;48.174;9.798;2024-01-15T11:57:55;7.35;;;4.00;;
27313;SDS011;14800;48.174;9.798;2024-01-15T12:00:25;13.18;;;3.97;;
27313;SDS011;14800;48.174;9.798;2024-01-15T12:02:51;6.75;;;3.92;;
27313;SDS011;14800;48.174;9.798;2024-01-15T12:05:17;8.68;;;4.20;;
27313;SDS011;14800;48.174;9.798;2024-01-15T12:07:47;5.70;;;3.80;;
27313;SDS011;14800;48.174;9.798;2024-01-15T12:10:17;7.22;;;3.92;;
27313;SDS011;14800;48.174;9.798;2024-01-15T12:12:59;9.00;;;4.00;;
27313;SDS011;14800;48.174;9.798;2024-01-15T12:15:29;8.88;;;4.65;;
27313;SDS011;14800;48.174;9.798;2024-01-15T12:17:56;8.63;;;4.53;;
27313;SDS011;14800;48.174;9.798;2024-01-15T12:20:27;8.88;;;4.40;;
27313;SDS011;14800;48.174;9.798;2024-01-15T12:22:53;8.77;;;4.85;;
27313;SDS011;14800;48.174;9.798;2024-01-15T12:25:20;8.82;;;4.97;;
27313;SDS011;14800;48.174;9.798;2024-01-15T12:27:46;8.57;;;4.95;;
27313;SDS011;14800;48.174;9.798;2024-01-15T12:30:16;8.02;;;4.85;;
27313;SDS011;14800;48.174;9.798;2024-01-15T12:32:41;12.20;;;5.10;;
27313;SDS011;14800;48.174;9.798;2024-01-15T12:35:08;8.10;;;4.85;;
27313;SDS011;14800;48.174;9.798;2024-01-15T12:37:44;10.25;;;5.10;;
27313;SDS011;14800;48.174;9.798;2024-01-15T12:40:12;9.02;;;4.53;;
27313;SDS011;14800;48.174;9.798;2024-01-15T12:42:39;9.73;;;5.10;;
27313;SDS011;14800;48.174;9.798;2024-01-15T12:45:05;10.15;;;4.43;;
27313;SDS011;14800;48.174;9.798;2024-01-15T12:47:31;8.77;;;4.80;;
27313;SDS011;14800;48.174;9.798;2024-01-15T12:49:58;17.15;;;8.90;;
27313;SDS011;14800;48.174;9.798;2024-01-15T12:52:26;42.85;;;15.68;;
27313;SDS011;14800;48.174;9.798;2024-01-15T12:54:52;13.35;;;7.35;;
27313;SDS011;14800;48.174;9.798;2024-01-15T12:57:18;10.88;;;5.50;;
27313;SDS011;14800;48.174;9.798;2024-01-15T12:59:44;9.02;;;4.65;;
27313;SDS011;14800;48.174;9.798;2024-01-15T13:02:10;9.32;;;5.13;;
27313;SDS011;14800;48.174;9.798;2024-01-15T13:04:39;10.93;;;5.00;;
27313;SDS011;14800;48.174;9.798;2024-01-15T13:07:05;10.50;;;5.43;;
27313;SDS011;14800;48.174;9.798;2024-01-15T13:09:32;10.15;;;4.93;;
27313;SDS011;14800;48.174;9.798;2024-01-15T13:12:01;9.60;;;5.03;;
27313;SDS011;14800;48.174;9.798;2024-01-15T13:14:27;13.90;;;5.78;;
27313;SDS011;14800;48.174;9.798;2024-01-15T13:16:53;11.15;;;5.15;;
27313;SDS011;14800;48.174;9.798;2024-01-15T13:19:19;11.10;;;5.65;;
27313;SDS011;14800;48.174;9.798;2024-01-15T13:21:46;10.35;;;5.32;;
27313;SDS011;14800;48.174;9.798;2024-01-15T13:24:13;10.57;;;5.55;;
27313;SDS011;14800;48.174;9.798;2024-01-15T13:26:39;9.65;;;4.93;;
27313;SDS011;14800;48.174;9.798;2024-01-15T13:29:05;10.82;;;5.47;;
27313;SDS011;14800;48.174;9.798;2024-01-15T13:31:31;11.77;;;6.13;;
27313;SDS011;14800;48.174;9.798;2024-01-15T13:33:57;11.65;;;5.55;;
27313;SDS011;14800;48.174;9.798;2024-01-15T13:36:23;10.27;;;4.97;;
27313;SDS011;14800;48.174;9.798;2024-01-15T13:38:50;12.27;;;5.65;;
27313;SDS011;14800;48.174;9.798;2024-01-15T13:41:16;10.35;;;5.82;;
27313;SDS011;14800;48.174;9.798;2024-01-15T13:43:49;9.38;;;5.10;;
27313;SDS011;14800;48.174;9.798;2024-01-15T13:46:16;9.40;;;5.53;;
27313;SDS011;14800;48.174;9.798;2024-01-15T13:48:42;8.80;;;5.05;;
27313;SDS011;14800;48.174;9.798;2024-01-15T13:51:08;9.10;;;5.30;;
27313;SDS011;14800;48.174;9.798;2024-01-15T13:53:33;7.90;;;4.72;;
27313;SDS011;14800;48.174;9.798;2024-01-15T13:55:59;10.32;;;5.03;;
27313;SDS011;14800;48.174;9.798;2024-01-15T13:58:24;7.70;;;4.22;;
27313;SDS011;14800;48.174;9.798;2024-01-15T14:00:51;7.50;;;4.45;;
27313;SDS011;14800;48.174;9.798;2024-01-15T14:03:17;9.45;;;4.10;;
27313;SDS011;14800;48.174;9.798;2024-01-15T14:05:43;7.72;;;4.05;;
27313;SDS011;14800;48.174;9.798;2024-01-15T14:08:09;5.68;;;3.95;;
27313;SDS011;14800;48.174;9.798;2024-01-15T14:10:34;6.65;;;4.22;;
27313;SDS011;14800;48.174;9.798;2024-01-15T14:13:00;6.70;;;3.53;;
27313;SDS011;14800;48.174;9.798;2024-01-15T14:15:26;6.40;;;3.22;;
27313;SDS011;14800;48.174;9.798;2024-01-15T14:17:52;8.82;;;3.25;;
27313;SDS011;14800;48.174;9.798;2024-01-15T14:20:18;4.35;;;3.22;;
27313;SDS011;14800;48.174;9.798;2024-01-15T14:22:43;6.55;;;2.60;;
27313;SDS011;14800;48.174;9.798;2024-01-15T14:25:09;4.85;;;3.00;;
27313;SDS011;14800;48.174;9.798;2024-01-15T14:27:35;3.92;;;2.78;;
27313;SDS011;14800;48.174;9.798;2024-01-15T14:30:01;6.53;;;3.28;;
27313;SDS011;14800;48.174;9.798;2024-01-15T14:32:27;5.25;;;3.08;;
27313;SDS011;14800;48.174;9.798;2024-01-15T14:34:53;5.57;;;2.78;;
27313;SDS011;14800;48.174;9.798;2024-01-15T14:37:19;2.70;;;2.15;;
27313;SDS011;14800;48.174;9.798;2024-01-15T14:39:45;3.83;;;2.40;;
27313;SDS011;14800;48.174;9.798;2024-01-15T14:42:11;3.67;;;2.50;;